Latest Weather Observations for Shark Bay Airport

IDW60801

Issued at 10:05 am WST Wednesday 24 September 2014 (issued every 30 minutes, with the page automatically refreshed every 10 minutes)

About weather observations | Map of weather stations | Latest weather observations for WA | Other Formats
Station Details ID: 006105 Name: SHARK BAY AIRPORT Lat: -25.89 Lon: 113.58 Height: 33.8 m
Data from the previous 72 hours. | See also: Recent months for locations in Western Australia
Date/Time
WST
Temp
°C
App
Temp
°C
Dew
Point
Rel
Hum
%
Delta-T
°C
Wind Press
QNH
hPa
Press
MSL
hPa
Rain
since 9 am
mm
Dir
 
Spd
km/h
Gust
km/h
Spd
kts
Gust
kts
24/10:00am 24.4 19.1 1.9 23 10.6 ENE 19 28 10 15 1021.6 1021.6 0.0
24/09:30am 23.8 18.1 2.6 25 10.1 E 22 30 12 16 1021.7 1021.7 0.0
24/09:00am 22.8 17.1 2.8 27 9.5 E 22 30 12 16 1021.6 1021.6 0.0
24/08:30am 21.6 15.9 4.7 33 8.3 E 24 32 13 17 1021.5 1021.5 0.0
24/08:00am 20.5 15.7 7.5 43 6.7 E 22 30 12 16 1021.3 1021.3 0.0
24/07:30am 18.5 14.9 9.8 57 4.6 E 19 26 10 14 1021.1 1021.1 0.0
24/07:00am 15.8 12.8 10.6 71 2.7 ESE 17 22 9 12 1020.9 1020.9 0.0
24/06:30am 14.3 11.6 10.5 78 2.0 ESE 15 19 8 10 1020.6 1020.6 0.0
24/06:00am 13.9 11.1 10.1 78 2.0 ESE 15 19 8 10 1020.5 1020.5 0.0
24/05:30am 13.4 10.7 10.4 82 1.6 SE 15 19 8 10 1020.4 1020.4 0.0
24/05:00am 12.1 9.4 8.9 81 1.6 SE 13 15 7 8 1020.3 1020.3 0.0
24/04:30am 12.2 9.4 8.7 79 1.7 SSE 13 15 7 8 1020.2 1020.2 0.0
24/04:00am 13.7 10.7 9.2 74 2.3 SSE 15 20 8 11 1020.3 1020.3 0.0
24/03:30am 13.8 10.9 9.6 76 2.2 SE 15 19 8 10 1020.2 1020.2 0.0
24/03:00am 13.5 10.9 9.2 75 2.2 SSE 13 17 7 9 1020.3 1020.3 0.0
24/02:30am 14.4 11.9 9.8 74 2.4 SE 13 19 7 10 1020.5 1020.5 0.0
24/02:00am 14.4 11.7 10.2 76 2.2 SSE 15 20 8 11 1020.6 1020.6 0.0
24/01:30am 14.4 11.7 10.4 77 2.1 SSE 15 20 8 11 1021.0 1021.0 0.0
24/01:00am 15.0 12.5 11.0 77 2.1 SSE 15 20 8 11 1021.2 1021.2 0.0
24/12:30am 15.8 13.0 11.4 75 2.4 SSE 17 24 9 13 1021.4 1021.4 0.0
24/12:00am 16.3 13.3 11.9 75 2.4 S 19 24 10 13 1021.6 1021.6 0.0
 
Date/Time
WST
Temp
°C
App
Temp
°C
Dew
Point
Rel
Hum
%
Delta-T
°C
Wind Press
QNH
hPa
Press
MSL
hPa
Rain
since 9 am
mm
Dir
 
Spd
km/h
Gust
km/h
Spd
kts
Gust
kts
23/11:30pm 16.8 13.9 12.3 75 2.5 S 19 26 10 14 1021.6 1021.6 0.0
23/11:00pm 17.3 14.4 12.8 75 2.5 S 20 26 11 14 1021.6 1021.6 0.0
23/10:30pm 17.5 14.6 13.0 75 2.5 S 20 30 11 16 1021.8 1021.8 0.0
23/10:00pm 17.6 14.3 12.9 74 2.6 S 22 32 12 17 1021.9 1021.9 0.0
23/09:30pm 17.7 14.0 12.6 72 2.8 S 24 33 13 18 1021.9 1021.9 0.0
23/09:00pm 17.7 14.7 12.6 72 2.8 S 20 28 11 15 1021.8 1021.8 0.0
23/08:30pm 17.9 14.0 12.1 69 3.2 S 24 32 13 17 1021.7 1021.7 0.0
23/08:00pm 18.1 14.1 11.9 67 3.4 S 24 35 13 19 1021.5 1021.5 0.0
23/07:30pm 18.4 14.3 11.5 64 3.8 S 24 37 13 20 1021.2 1021.2 0.0
23/07:00pm 18.7 14.3 10.3 58 4.5 S 24 33 13 18 1020.9 1020.9 0.0
23/06:30pm 19.3 15.1 9.8 54 5.1 S 22 33 12 18 1020.6 1020.6 0.0
23/06:00pm 20.4 16.4 9.0 48 6.0 S 20 28 11 15 1020.4 1020.4 0.0
23/05:30pm 21.3 15.4 5.6 36 7.8 SSW 26 33 14 18 1020.2 1020.2 0.0
23/05:00pm 22.1 16.7 6.3 36 8.0 SSW 24 30 13 16 1020.1 1020.1 0.0
23/04:30pm 22.6 17.7 5.1 32 8.7 SSW 20 30 11 16 1020.2 1020.2 0.0
23/04:00pm 24.2 19.5 2.9 25 10.3 SE 17 28 9 15 1020.2 1020.2 0.0
23/03:30pm 23.8 18.4 2.6 25 10.2 SE 20 32 11 17 1020.3 1020.3 0.0
23/03:00pm 24.1 18.7 2.3 24 10.4 ESE 20 32 11 17 1020.6 1020.6 0.0
23/02:30pm 23.4 17.7 2.8 26 9.9 ESE 22 35 12 19 1020.9 1020.9 0.0
23/02:00pm 23.8 18.7 3.2 26 9.9 E 19 33 10 18 1021.3 1021.3 0.0
23/01:30pm 22.8 17.5 2.8 27 9.6 ESE 20 32 11 17 1021.8 1021.8 0.0
23/01:00pm 22.6 17.4 2.7 27 9.4 SE 19 24 10 13 1022.2 1022.2 0.0
23/12:30pm 22.1 17.0 4.2 31 8.7 SE 20 28 11 15 1022.7 1022.7 0.0
23/12:00pm 21.6 16.6 4.7 33 8.3 ESE 20 28 11 15 1023.0 1022.9 0.0
23/11:30am 21.0 14.8 4.1 33 8.2 E 26 33 14 18 1023.5 1023.4 0.0
23/11:00am 20.7 14.7 5.5 37 7.5 ESE 26 35 14 19 1023.9 1023.8 0.0
23/10:30am 20.1 14.3 6.4 41 6.9 ESE 26 35 14 19 1024.2 1024.1 0.0
23/10:00am 19.3 13.2 6.4 43 6.4 ESE 28 37 15 20 1024.4 1024.3 0.0
23/09:30am 18.6 12.5 6.8 46 5.9 ESE 28 43 15 23 1024.4 1024.3 0.0
23/09:00am 18.2 12.3 7.6 50 5.4 ESE 28 37 15 20 1024.5 1024.4 1.0
23/08:30am 17.4 11.5 7.5 52 5.0 SE 28 39 15 21 1024.5 1024.4 1.0
23/08:00am 16.7 12.2 8.4 58 4.2 SE 22 30 12 16 1024.5 1024.4 1.0
23/07:30am 15.8 11.0 8.8 63 3.6 SE 24 33 13 18 1024.1 1024.0 1.0
23/07:00am 14.3 11.4 9.5 73 2.5 SE 15 24 8 13 1023.8 1023.7 1.0
23/06:30am 12.3 9.2 8.8 79 1.7 SE 15 19 8 10 1023.6 1023.5 1.0
23/06:00am 12.3 9.1 8.4 77 1.9 ESE 15 19 8 10 1023.4 1023.3 1.0
23/05:30am 12.8 9.2 8.5 75 2.1 SE 17 22 9 12 1023.4 1023.3 1.0
23/05:00am 13.0 9.1 8.5 74 2.2 SE 19 24 10 13 1023.2 1023.1 1.0
23/04:30am 13.0 9.3 7.9 71 2.5 SE 17 22 9 12 1023.1 1023.0 1.0
23/04:00am 13.0 8.8 7.5 69 2.7 SSE 19 26 10 14 1023.2 1023.1 1.0
23/03:30am 12.9 9.0 6.9 67 2.9 SE 17 24 9 13 1023.2 1023.1 1.0
23/03:00am 12.8 8.8 6.8 67 2.9 SSE 17 22 9 12 1023.2 1023.1 1.0
23/02:30am 13.0 8.7 7.0 67 2.9 SSE 19 24 10 13 1023.2 1023.1 1.0
23/02:00am 13.2 8.9 7.2 67 2.9 SSE 19 24 10 13 1023.4 1023.3 1.0
23/01:30am 13.4 9.6 7.6 68 2.8 SE 17 24 9 13 1023.8 1023.7 1.0
23/01:00am 13.9 9.7 7.4 65 3.2 SSE 19 28 10 15 1023.8 1023.7 1.0
23/12:30am 14.1 10.0 7.9 66 3.1 SSE 19 22 10 12 1023.9 1023.8 1.0
23/12:00am 14.3 10.2 8.0 66 3.1 SSE 19 24 10 13 1023.9 1023.8 1.0
 
Date/Time
WST
Temp
°C
App
Temp
°C
Dew
Point
Rel
Hum
%
Delta-T
°C
Wind Press
QNH
hPa
Press
MSL
hPa
Rain
since 9 am
mm
Dir
 
Spd
km/h
Gust
km/h
Spd
kts
Gust
kts
22/11:30pm 14.7 10.6 8.0 64 3.3 SSE 19 26 10 14 1023.9 1023.8 1.0
22/11:00pm 15.1 10.4 7.9 62 3.6 SSE 22 30 12 16 1023.9 1023.8 1.0
22/10:30pm 15.4 11.4 8.4 63 3.5 SSE 19 26 10 14 1024.1 1024.0 1.0
22/10:00pm 15.3 11.8 8.8 65 3.3 SSE 17 22 9 12 1024.1 1024.0 1.0
22/09:30pm 15.4 11.9 8.9 65 3.3 S 17 20 9 11 1024.0 1023.9 1.0
22/09:00pm 15.8 12.3 8.8 63 3.6 S 17 20 9 11 1023.9 1023.8 1.0
22/08:30pm 16.2 12.4 9.2 63 3.6 S 19 26 10 14 1023.6 1023.5 1.0
22/08:00pm 16.6 12.2 8.8 60 4.0 S 22 28 12 15 1023.3 1023.2 1.0
22/07:30pm 16.8 12.4 9.0 60 4.0 S 22 30 12 16 1023.2 1023.1 1.0
22/07:00pm 17.2 12.8 8.9 58 4.3 S 22 32 12 17 1022.7 1022.7 1.0
22/06:30pm 17.7 13.4 9.3 58 4.4 S 22 32 12 17 1022.5 1022.5 1.0
22/06:00pm 18.5 13.3 9.0 54 4.9 S 26 37 14 20 1022.1 1022.1 1.0
22/05:30pm 19.3 14.5 8.9 51 5.5 S 24 35 13 19 1021.8 1021.8 1.0
22/05:00pm 19.9 15.3 9.5 51 5.5 S 24 32 13 17 1021.6 1021.6 1.0
22/04:30pm 20.8 15.9 8.4 45 6.5 SSE 24 33 13 18 1021.5 1021.5 1.0
22/04:00pm 20.9 16.0 8.5 45 6.5 S 24 39 13 21 1021.3 1021.3 1.0
22/03:30pm 21.1 16.6 10.0 49 6.0 SSE 24 35 13 19 1021.4 1021.4 1.0
22/03:00pm 20.3 15.1 10.4 53 5.3 S 28 37 15 20 1021.3 1021.3 1.0
22/02:30pm 20.9 16.3 11.0 53 5.4 S 26 37 14 20 1021.4 1021.4 1.0
22/02:00pm 19.9 14.2 9.8 52 5.4 SSE 30 39 16 21 1021.7 1021.7 1.0
22/01:30pm 19.0 13.8 11.6 62 4.1 S 30 41 16 22 1022.4 1022.4 1.0
22/01:00pm 19.1 15.2 12.1 64 3.9 S 24 33 13 18 1022.5 1022.5 1.0
22/12:30pm 16.8 14.0 13.3 80 2.0 S 20 28 11 15 1023.1 1023.0 1.0
22/12:00pm 16.2 13.9 12.9 81 1.8 S 17 26 9 14 1023.4 1023.3 0.4
22/11:30am 18.2 14.7 10.8 62 4.0 SSE 20 35 11 19 1023.8 1023.7 0.2
22/11:00am 19.6 15.9 11.6 60 4.4 SSE 22 32 12 17 1023.6 1023.5 0.0
22/10:30am 19.8 16.5 11.6 59 4.5 SE 20 30 11 16 1023.6 1023.5 0.0
22/10:00am 17.8 14.1 11.4 66 3.5 SE 22 30 12 16 1023.6 1023.5 0.0
22/09:30am 17.9 15.1 11.2 65 3.6 SE 17 24 9 13 1023.4 1023.3 0.0
22/09:00am 17.1 13.7 10.7 66 3.4 SSE 19 28 10 15 1023.4 1023.3 9.0
22/08:30am 16.0 12.4 10.7 71 2.8 SSE 20 28 11 15 1023.1 1023.0 9.0
22/08:11am 15.8 10.8 10.8 72 2.7 S 28 50 15 27 1023.3 1023.2 9.0
22/08:00am 18.6 14.0 9.7 56 4.7 S 24 32 13 17 1022.6 1022.6 9.0
22/07:30am 17.0 11.7 9.7 62 3.8 S 28 37 15 20 1022.4 1022.4 9.0
22/07:17am 17.0 10.6 10.6 66 3.4 S 35 43 19 23 1022.1 1022.1 9.0
22/07:00am 15.3 12.2 9.0 66 3.2 S 15 20 8 11 1021.9 1021.9 9.0
22/06:30am 15.5 11.9 8.5 63 3.6 S 17 26 9 14 1021.4 1021.4 9.0
22/06:00am 15.5 11.8 9.6 68 3.1 S 19 26 10 14 1021.1 1021.1 9.0
22/05:30am 15.6 11.7 9.5 67 3.2 S 20 30 11 16 1020.6 1020.6 9.0
22/05:00am 16.1 11.4 9.1 63 3.6 SSW 24 35 13 19 1020.3 1020.3 9.0
22/04:30am 15.9 11.5 9.1 64 3.5 SSW 22 32 12 17 1020.1 1020.1 9.0
22/04:00am 16.4 11.0 9.6 64 3.5 SSW 28 39 15 21 1019.9 1019.9 9.0
22/03:30am 16.3 11.7 9.7 65 3.4 SSW 24 35 13 19 1019.7 1019.7 9.0
22/03:00am 15.8 12.3 10.1 69 3.0 SSW 19 26 10 14 1019.7 1019.7 9.0
22/02:30am 16.0 11.8 9.9 67 3.2 SSW 22 35 12 19 1019.7 1019.7 9.0
22/02:00am 16.0 11.5 10.1 68 3.1 SSW 24 35 13 19 1019.6 1019.6 9.0
22/01:30am 15.9 11.1 8.9 63 3.6 SSW 24 35 13 19 1019.7 1019.7 9.0
22/01:00am 16.2 11.2 9.4 64 3.5 SSW 26 41 14 22 1019.8 1019.8 9.0
22/12:30am 15.7 12.1 10.5 71 2.8 SSW 20 33 11 18 1019.9 1019.9 9.0
22/12:00am 16.1 11.0 9.3 64 3.5 SW 26 37 14 20 1019.9 1019.9 9.0
 
Date/Time
WST
Temp
°C
App
Temp
°C
Dew
Point
Rel
Hum
%
Delta-T
°C
Wind Press
QNH
hPa
Press
MSL
hPa
Rain
since 9 am
mm
Dir
 
Spd
km/h
Gust
km/h
Spd
kts
Gust
kts
21/11:30pm 16.4 11.1 9.8 65 3.5 SW 28 37 15 20 1020.0 1020.0 9.0
21/11:00pm 16.3 11.0 9.9 66 3.3 SW 28 43 15 23 1020.0 1020.0 9.0
21/10:30pm 16.4 11.7 10.5 68 3.1 SW 26 41 14 22 1019.9 1019.9 9.0
21/10:00pm 16.2 10.7 9.2 63 3.6 WSW 28 39 15 21 1019.8 1019.8 9.0
21/09:30pm 16.6 10.8 9.5 63 3.7 SW 30 41 16 22 1019.7 1019.7 9.0
21/09:10pm 16.0 10.4 8.7 62 3.7 WSW 28 46 15 25 1019.6 1019.6 9.0
21/09:00pm 16.3 10.2 8.3 59 4.1 WSW 30 44 16 24 1019.6 1019.6 9.0
21/08:30pm 16.1 9.8 9.1 63 3.6 WSW 32 48 17 26 1019.3 1019.3 9.0
21/08:08pm 15.7 10.5 10.2 70 2.9 WSW 28 46 15 25 1018.9 1018.9 9.0
21/08:00pm 15.1 10.5 10.9 76 2.2 WSW 26 35 14 19 1018.8 1018.8 9.0
21/07:30pm 14.3 7.7 11.3 82 1.6 WSW 37 57 20 31 1018.6 1018.6 9.0
21/07:00pm 14.7 7.7 11.1 79 1.9 SW 39 59 21 32 1018.0 1017.9 8.6
21/06:54pm 16.4 10.1 10.9 70 2.9 WSW 35 59 19 32 1018.0 1017.9 8.4
21/06:30pm 16.8 10.2 10.0 64 3.6 WSW 35 50 19 27 1017.2 1017.1 8.4
21/06:16pm 17.5 10.8 11.1 66 3.5 WSW 37 56 20 30 1016.7 1016.6 8.4
21/06:00pm 17.2 11.1 10.3 64 3.7 W 33 50 18 27 1016.4 1016.3 8.4
21/05:30pm 16.5 10.6 11.0 70 3.0 W 33 52 18 28 1016.2 1016.1 8.4
21/05:00pm 15.5 10.8 13.2 86 1.3 W 30 43 16 23 1016.1 1016.0 8.0
21/04:42pm 15.5 10.7 12.8 84 1.5 W 30 50 16 27 1015.8 1015.7 8.0
21/04:30pm 16.0 12.0 14.0 88 1.1 W 28 41 15 22 1015.7 1015.6 7.8
21/04:00pm 15.6 10.7 13.6 88 1.1 WSW 32 43 17 23 1015.7 1015.6 7.4
21/03:42pm 15.6 10.1 13.6 88 1.1 WSW 35 54 19 29 1015.8 1015.7 7.0
21/03:30pm 15.6 9.0 13.6 88 1.1 WSW 41 54 22 29 1015.6 1015.5 7.0
21/03:19pm 16.2 11.0 14.4 89 1.0 W 35 54 19 29 1015.3 1015.2 6.8
21/03:00pm 16.7 13.0 15.1 90 0.9 W 28 37 15 20 1015.0 1014.9 5.4
21/02:30pm 17.1 12.2 15.4 90 1.0 W 35 48 19 26 1014.8 1014.7 4.8
21/02:00pm 17.5 13.2 15.8 90 1.0 W 33 50 18 27 1014.5 1014.4 4.6
21/01:30pm 17.4 13.2 15.7 90 1.0 W 32 43 17 23 1014.4 1014.3 4.2
21/01:00pm 17.0 11.6 15.0 88 1.2 WSW 37 50 20 27 1014.9 1014.8 3.4
21/12:41pm 17.7 12.9 15.5 87 1.3 WSW 35 54 19 29 1014.6 1014.5 3.0
21/12:30pm 18.1 13.3 15.5 85 1.5 WSW 35 48 19 26 1014.5 1014.4 3.0
21/12:00pm 19.0 14.3 16.8 87 1.3 W 37 54 20 29 1014.3 1014.2 3.0
21/11:57am 19.3 15.2 17.3 88 1.2 W 35 54 19 29 1014.4 1014.3 3.0
21/11:30am 18.5 13.3 16.5 88 1.2 WSW 39 52 21 28 1014.8 1014.7 2.8
21/11:03am 19.7 15.5 16.3 81 2.0 WSW 33 52 18 28 1014.1 1014.0 1.2
21/11:00am 20.5 16.5 16.3 77 2.5 W 32 46 17 25 1013.6 1013.5 0.6
21/10:54am 22.1 16.7 16.1 69 3.6 W 39 57 21 31 1013.5 1013.4 0.0
21/10:48am 23.8 17.1 14.5 56 5.5 WNW 43 56 23 30 1013.8 1013.7 0.0
21/10:30am 26.5 20.9 16.4 53 6.2 NW 41 63 22 34 1013.7 1013.6 0.0
21/10:07am 25.4 18.8 15.4 54 6.1 NW 44 65 24 35 1013.8 1013.7 0.0

Other Formats:

Comma delimited format used in spreadsheet applications
http://www.bom.gov.au/fwo/IDW60801/IDW60801.95402.axf

JavaScript Object Notation format (JSON) in row-major order
http://www.bom.gov.au/fwo/IDW60801/IDW60801.95402.json